createdAt,value
2023-02-15T00:01:32.598Z,97390.91
2023-02-15T00:04:02.725Z,97393.84
2023-02-15T00:06:31.727Z,97388.84
2023-02-15T00:09:00.980Z,97391.94
2023-02-15T00:11:41.677Z,97392.59
2023-02-15T00:14:16.144Z,97390.19
2023-02-15T00:16:46.407Z,97389.53
2023-02-15T00:19:18.276Z,97395.72
2023-02-15T00:21:48.579Z,97403.78
2023-02-15T00:24:19.595Z,97383.50
2023-02-15T00:26:49.226Z,97401.75
2023-02-15T00:29:20.338Z,97397.88
2023-02-15T00:31:49.811Z,97402.22
2023-02-15T00:34:26.689Z,97407.59
2023-02-15T00:36:55.823Z,97390.47
2023-02-15T00:39:25.510Z,97414.09
2023-02-15T00:41:54.332Z,97410.53
2023-02-15T00:44:23.162Z,97409.38
2023-02-15T00:46:52.048Z,97405.16
2023-02-15T00:49:22.910Z,97403.22
2023-02-15T00:51:51.670Z,97409.81
2023-02-15T00:54:20.612Z,97419.69
2023-02-15T00:56:49.367Z,97402.72
2023-02-15T00:59:18.215Z,97411.41
2023-02-15T01:01:49.287Z,97403.97
2023-02-15T01:04:18.361Z,97409.03
2023-02-15T01:06:47.131Z,97399.22
2023-02-15T01:09:16.063Z,97414.16
2023-02-15T01:11:44.849Z,97409.63
2023-02-15T01:14:14.817Z,97413.25
2023-02-15T01:16:44.093Z,97417.09
2023-02-15T01:19:12.948Z,97401.91
2023-02-15T01:21:42.259Z,97425.88
2023-02-15T01:24:15.706Z,97417.59
2023-02-15T01:26:44.596Z,97412.69
2023-02-15T01:29:13.409Z,97418.31
2023-02-15T01:31:42.324Z,97423.44
2023-02-15T01:34:11.264Z,97417.38
2023-02-15T01:36:41.026Z,97420.47
2023-02-15T01:39:11.146Z,97413.25
2023-02-15T01:41:40.027Z,97424.50
2023-02-15T01:44:46.414Z,97422.56
2023-02-15T01:47:22.646Z,97418.97
2023-02-15T01:50:00.108Z,97406.34
2023-02-15T01:52:29.264Z,97409.59
2023-02-15T01:54:58.617Z,97419.78
2023-02-15T01:57:30.282Z,97411.00
2023-02-15T02:00:03.124Z,97409.66
2023-02-15T02:02:45.742Z,97422.09
2023-02-15T02:05:14.766Z,97421.22
2023-02-15T02:07:48.921Z,97415.00
2023-02-15T02:10:20.723Z,97419.38
2023-02-15T02:12:51.970Z,97419.19
2023-02-15T02:15:31.010Z,97416.34
2023-02-15T02:18:26.059Z,97418.13
2023-02-15T02:21:03.738Z,97420.19
2023-02-15T02:23:42.176Z,97419.50
2023-02-15T02:26:58.658Z,97413.03
2023-02-15T02:29:46.148Z,97414.63
2023-02-15T02:33:01.301Z,97414.41
2023-02-15T02:35:53.141Z,97412.97
2023-02-15T02:38:50.340Z,97418.25
2023-02-15T02:41:51.524Z,97410.69
2023-02-15T02:44:39.442Z,97387.25
2023-02-15T02:47:15.572Z,97405.34
2023-02-15T02:49:45.392Z,97409.00
2023-02-15T02:52:35.849Z,97400.59
2023-02-15T02:55:26.969Z,97403.53
2023-02-15T02:57:56.388Z,97402.13
2023-02-15T03:00:27.913Z,97408.22
2023-02-15T03:03:07.435Z,97397.22
2023-02-15T03:05:41.123Z,97401.25
2023-02-15T03:08:11.502Z,97391.00
2023-02-15T03:10:42.281Z,97383.38
2023-02-15T03:13:11.248Z,97406.84
2023-02-15T03:16:02.327Z,97400.63
2023-02-15T03:18:37.482Z,97391.78
2023-02-15T03:21:09.955Z,97387.00
2023-02-15T03:23:40.859Z,97387.19
2023-02-15T03:26:10.244Z,97394.84
2023-02-15T03:28:49.746Z,97399.69
2023-02-15T03:31:22.722Z,97392.25
2023-02-15T03:34:03.898Z,97388.59
2023-02-15T03:36:50.890Z,97393.59
2023-02-15T03:39:48.316Z,97401.59
2023-02-15T03:42:34.533Z,97392.19
2023-02-15T03:45:13.394Z,97387.78
2023-02-15T03:47:48.579Z,97393.56
2023-02-15T03:50:44.882Z,97391.53
2023-02-15T03:53:16.067Z,97392.84
2023-02-15T03:55:54.741Z,97391.06
2023-02-15T03:58:42.045Z,97385.81
2023-02-15T04:01:59.151Z,97369.72
2023-02-15T04:04:40.693Z,97348.06
2023-02-15T04:07:10.487Z,97389.22
2023-02-15T04:09:57.719Z,97384.22
2023-02-15T04:12:26.602Z,97373.81
2023-02-15T04:15:14.065Z,97380.84
2023-02-15T04:17:42.976Z,97379.44
2023-02-15T04:20:30.474Z,97384.44
2023-02-15T04:23:17.819Z,97381.91
2023-02-15T04:25:46.682Z,97377.91
2023-02-15T04:28:15.452Z,97371.00
2023-02-15T04:30:44.275Z,97374.34
2023-02-15T04:33:12.974Z,97377.38
2023-02-15T04:35:41.816Z,97378.25
2023-02-15T04:38:11.824Z,97380.59
2023-02-15T04:40:40.645Z,97373.03
2023-02-15T04:43:09.454Z,97372.81
2023-02-15T04:45:38.264Z,97377.25
2023-02-15T04:48:07.137Z,97387.97
2023-02-15T04:50:35.956Z,97371.44
2023-02-15T04:53:04.905Z,97378.34
2023-02-15T04:55:33.660Z,97369.81
2023-02-15T04:58:02.492Z,97370.25
2023-02-15T05:00:32.169Z,97368.53
2023-02-15T05:03:01.253Z,97370.91
2023-02-15T05:05:30.200Z,97369.69
2023-02-15T05:07:59.022Z,97364.94
2023-02-15T05:10:27.863Z,97362.53
2023-02-15T05:12:56.664Z,97358.31
2023-02-15T05:15:25.464Z,97365.38
2023-02-15T05:17:54.226Z,97366.75
2023-02-15T05:20:23.214Z,97363.22
2023-02-15T05:22:56.196Z,97358.78
2023-02-15T05:25:43.912Z,97352.72
2023-02-15T05:28:22.020Z,97362.47
2023-02-15T05:31:18.507Z,97350.41
2023-02-15T05:33:47.463Z,97350.69
2023-02-15T05:36:16.285Z,97346.97
2023-02-15T05:38:45.292Z,97344.28
2023-02-15T05:41:14.233Z,97346.06
2023-02-15T05:43:44.230Z,97354.75
2023-02-15T05:46:14.306Z,97330.00
2023-02-15T05:48:43.230Z,97353.09
2023-02-15T05:51:18.486Z,97344.63
2023-02-15T05:53:47.552Z,97339.56
2023-02-15T05:56:16.377Z,97353.03
2023-02-15T05:58:45.194Z,97343.38
2023-02-15T06:01:20.470Z,97348.06
2023-02-15T06:03:49.692Z,97336.97
2023-02-15T06:06:18.636Z,97336.44
2023-02-15T06:08:48.002Z,97339.22
2023-02-15T06:11:17.130Z,97331.91
2023-02-15T06:13:45.927Z,97329.78
2023-02-15T06:16:14.684Z,97330.53
2023-02-15T06:18:43.602Z,97339.44
2023-02-15T06:21:12.634Z,97331.78
2023-02-15T06:23:41.704Z,97337.47
2023-02-15T06:26:10.554Z,97333.44
2023-02-15T06:28:39.431Z,97322.50
2023-02-15T06:31:08.408Z,97327.09
2023-02-15T06:33:37.327Z,97331.69
2023-02-15T06:36:06.423Z,97327.41
2023-02-15T06:38:35.319Z,97314.94
2023-02-15T06:41:04.224Z,97320.31
2023-02-15T06:43:33.067Z,97317.25
2023-02-15T06:46:02.891Z,97317.41
2023-02-15T06:48:31.949Z,97313.34
2023-02-15T06:51:00.837Z,97318.56
2023-02-15T06:53:30.038Z,97321.72
2023-02-15T06:56:08.223Z,97324.56
2023-02-15T06:58:47.564Z,97324.16
2023-02-15T07:01:17.047Z,97308.19
2023-02-15T07:03:46.246Z,97312.34
2023-02-15T07:06:15.171Z,97318.38
2023-02-15T07:08:43.983Z,97323.53
2023-02-15T07:11:31.435Z,97324.31
2023-02-15T07:14:00.267Z,97316.66
2023-02-15T07:16:29.660Z,97316.00
2023-02-15T07:18:58.589Z,97311.72
2023-02-15T07:21:27.616Z,97325.06
2023-02-15T07:23:59.393Z,97331.25
2023-02-15T07:26:28.703Z,97321.97
2023-02-15T07:28:57.492Z,97331.28
2023-02-15T07:31:26.354Z,97318.09
2023-02-15T07:33:55.358Z,97315.06
2023-02-15T07:36:24.487Z,97312.28
2023-02-15T07:38:53.243Z,97316.38
2023-02-15T07:41:22.276Z,97311.47
2023-02-15T07:43:51.058Z,97315.53
2023-02-15T07:46:20.968Z,97319.91
2023-02-15T07:48:49.889Z,97324.13
2023-02-15T07:51:18.719Z,97315.91
2023-02-15T07:53:48.742Z,97323.16
2023-02-15T07:56:17.604Z,97309.16
2023-02-15T07:58:52.458Z,97322.47
2023-02-15T08:01:25.058Z,97311.75
2023-02-15T08:03:55.940Z,97320.63
2023-02-15T08:06:27.720Z,97306.75
2023-02-15T08:08:58.126Z,97320.03
2023-02-15T08:11:35.002Z,97305.75
2023-02-15T08:14:17.423Z,97315.63
2023-02-15T08:16:49.256Z,97316.53
2023-02-15T08:19:27.253Z,97313.47
2023-02-15T08:22:05.673Z,97306.69
2023-02-15T08:24:38.894Z,97309.16
2023-02-15T08:27:10.471Z,97316.97
2023-02-15T08:29:40.811Z,97304.06
2023-02-15T08:32:12.173Z,97310.59
2023-02-15T08:34:43.369Z,97315.81
2023-02-15T08:37:12.392Z,97315.25
2023-02-15T08:39:41.317Z,97310.03
2023-02-15T08:42:10.188Z,97310.94
2023-02-15T08:44:38.976Z,97299.59
2023-02-15T08:47:07.823Z,97318.03
2023-02-15T08:49:36.667Z,97312.31
2023-02-15T08:52:05.826Z,97314.69
2023-02-15T08:54:34.611Z,97313.50
2023-02-15T08:57:03.638Z,97313.09
2023-02-15T08:59:32.575Z,97324.59
2023-02-15T09:02:04.603Z,97321.78
2023-02-15T09:04:33.660Z,97319.19
2023-02-15T09:07:02.470Z,97317.81
2023-02-15T09:09:32.720Z,97324.81
2023-02-15T09:12:01.716Z,97330.44
2023-02-15T09:14:30.674Z,97334.88
2023-02-15T09:16:59.583Z,97323.41
2023-02-15T09:19:28.717Z,97305.16
2023-02-15T09:21:57.597Z,97331.44
2023-02-15T09:24:26.476Z,97342.47
2023-02-15T09:26:55.329Z,97325.38
2023-02-15T09:29:24.356Z,97309.72
2023-02-15T09:31:55.085Z,97331.34
2023-02-15T09:34:24.405Z,97332.31
2023-02-15T09:36:53.779Z,97338.28
2023-02-15T09:39:25.237Z,97336.84
2023-02-15T09:42:29.334Z,97337.00
2023-02-15T09:45:18.221Z,97334.94
2023-02-15T09:48:05.228Z,97342.09
2023-02-15T09:51:02.222Z,97327.41
2023-02-15T09:54:09.864Z,97343.22
2023-02-15T09:57:11.703Z,97341.94
2023-02-15T10:00:01.155Z,97327.44
2023-02-15T10:02:32.838Z,97341.06
2023-02-15T10:05:33.688Z,97341.19
2023-02-15T10:08:39.724Z,97329.28
2023-02-15T10:11:40.760Z,97341.94
2023-02-15T10:14:24.894Z,97347.94
2023-02-15T10:17:24.313Z,97350.72
2023-02-15T10:19:53.132Z,97345.53
2023-02-15T10:22:30.892Z,97346.53
2023-02-15T10:25:32.916Z,97346.09
2023-02-15T10:28:07.947Z,97340.41
2023-02-15T10:30:50.750Z,97350.59
2023-02-15T10:33:25.523Z,97355.81
2023-02-15T10:36:25.674Z,97352.78
2023-02-15T10:39:32.940Z,97356.97
2023-02-15T10:42:28.183Z,97358.50
2023-02-15T10:45:09.301Z,97364.66
2023-02-15T10:48:02.591Z,97366.63
2023-02-15T10:50:53.259Z,97367.19
2023-02-15T10:53:40.753Z,97371.66
2023-02-15T10:56:38.586Z,97370.38
2023-02-15T10:59:17.474Z,97377.28
2023-02-15T11:01:52.757Z,97375.25
2023-02-15T11:04:34.081Z,97375.44
2023-02-15T11:07:10.020Z,97380.19
2023-02-15T11:09:48.460Z,97376.88
2023-02-15T11:12:22.871Z,97380.47
2023-02-15T11:15:17.251Z,97382.28
2023-02-15T11:17:52.278Z,97382.09
2023-02-15T11:20:31.561Z,97379.66
2023-02-15T11:23:03.033Z,97386.91
2023-02-15T11:25:35.564Z,97382.88
2023-02-15T11:28:15.623Z,97390.28
2023-02-15T11:30:56.188Z,97393.25
2023-02-15T11:33:41.914Z,97390.94
2023-02-15T11:36:34.991Z,97396.72
2023-02-15T11:39:17.859Z,97389.59
2023-02-15T11:41:53.531Z,97393.59
2023-02-15T11:44:54.125Z,97394.22
2023-02-15T11:47:22.927Z,97388.75
2023-02-15T11:49:51.892Z,97389.13
2023-02-15T11:52:21.099Z,97372.97
2023-02-15T11:54:53.271Z,97393.06
2023-02-15T11:57:33.929Z,97392.09
2023-02-15T12:00:37.947Z,97396.72
2023-02-15T12:03:34.738Z,97397.19
2023-02-15T12:06:06.471Z,97392.00
2023-02-15T12:08:47.901Z,97392.19
2023-02-15T12:11:27.568Z,97390.38
2023-02-15T12:14:02.509Z,97391.53
2023-02-15T12:16:44.494Z,97395.31
2023-02-15T12:19:34.600Z,97399.69
2023-02-15T12:22:05.517Z,97393.06
2023-02-15T12:24:39.750Z,97389.06
2023-02-15T12:27:18.751Z,97386.03
2023-02-15T12:29:54.455Z,97388.88
2023-02-15T12:32:36.002Z,97389.41
2023-02-15T12:35:29.464Z,97385.84
2023-02-15T12:38:27.171Z,97390.41
2023-02-15T12:41:02.822Z,97384.59
2023-02-15T12:43:39.322Z,97359.81
2023-02-15T12:46:24.646Z,97386.28
2023-02-15T12:49:26.135Z,97385.84
2023-02-15T12:52:01.114Z,97386.22
2023-02-15T12:54:33.533Z,97384.16
2023-02-15T12:57:24.819Z,97381.09
2023-02-15T12:59:57.039Z,97395.09
2023-02-15T13:02:31.926Z,97384.44
2023-02-15T13:05:10.122Z,97386.56
2023-02-15T13:07:39.245Z,97385.31
2023-02-15T13:10:24.550Z,97381.84
2023-02-15T13:12:55.850Z,97370.34
2023-02-15T13:15:45.690Z,97373.47
2023-02-15T13:18:20.385Z,97385.69
2023-02-15T13:20:51.589Z,97376.84
2023-02-15T13:23:29.893Z,97375.47
2023-02-15T13:26:04.118Z,97374.03
2023-02-15T13:28:47.780Z,97370.75
2023-02-15T13:31:22.117Z,97379.03
2023-02-15T13:34:00.386Z,97357.47
2023-02-15T13:36:43.092Z,97374.25
2023-02-15T13:39:35.881Z,97377.22
2023-02-15T13:42:22.683Z,97373.28
2023-02-15T13:44:58.504Z,97374.56
2023-02-15T13:47:33.252Z,97364.38
2023-02-15T13:50:20.400Z,97366.50
2023-02-15T13:53:00.880Z,97370.22
2023-02-15T13:55:52.601Z,97376.13
2023-02-15T13:58:39.731Z,97369.84
2023-02-15T14:01:20.941Z,97375.53
2023-02-15T14:04:02.269Z,97372.03
2023-02-15T14:07:00.231Z,97368.50
2023-02-15T14:10:06.201Z,97374.03
2023-02-15T14:12:57.043Z,97365.81
2023-02-15T14:15:56.816Z,97370.72
2023-02-15T14:19:06.851Z,97372.53
2023-02-15T14:21:49.293Z,97350.34
2023-02-15T14:24:31.876Z,97366.19
2023-02-15T14:27:12.792Z,97373.50
2023-02-15T14:29:50.533Z,97367.19
2023-02-15T14:32:27.744Z,97361.03
2023-02-15T14:35:05.530Z,97373.38
2023-02-15T14:37:46.407Z,97371.91
2023-02-15T14:41:03.618Z,97371.75
2023-02-15T14:43:39.146Z,97370.78
2023-02-15T14:46:27.836Z,97362.19
2023-02-15T14:49:08.815Z,97360.25
2023-02-15T14:51:49.811Z,97357.50
2023-02-15T14:54:21.468Z,97362.66
2023-02-15T14:57:02.569Z,97353.28
2023-02-15T14:59:40.884Z,97349.41
2023-02-15T15:02:10.299Z,97347.19
2023-02-15T15:05:03.876Z,97350.13
2023-02-15T15:07:50.131Z,97343.81
2023-02-15T15:10:19.315Z,97345.97
2023-02-15T15:12:50.414Z,97340.19
2023-02-15T15:15:28.492Z,97343.41
2023-02-15T15:18:01.747Z,97342.28
2023-02-15T15:20:45.950Z,97340.97
2023-02-15T15:23:17.773Z,97341.72
2023-02-15T15:25:58.239Z,97334.06
2023-02-15T15:28:36.170Z,97324.81
2023-02-15T15:31:19.414Z,97327.69
2023-02-15T15:34:03.379Z,97323.91
2023-02-15T15:36:54.901Z,97324.97
2023-02-15T15:39:36.260Z,97329.63
2023-02-15T15:42:33.146Z,97314.63
2023-02-15T15:45:18.743Z,97324.56
2023-02-15T15:48:06.632Z,97326.81
2023-02-15T15:50:36.432Z,97318.41
2023-02-15T15:53:06.242Z,97316.91
2023-02-15T15:55:36.259Z,97319.50
2023-02-15T15:58:08.913Z,97306.72
2023-02-15T16:00:39.053Z,97319.16
2023-02-15T16:03:22.474Z,97306.53
2023-02-15T16:05:57.804Z,97317.66
2023-02-15T16:08:36.206Z,97314.25
2023-02-15T16:11:31.284Z,97313.44
2023-02-15T16:14:00.252Z,97312.66
2023-02-15T16:16:31.267Z,97314.53
2023-02-15T16:19:01.215Z,97309.34
2023-02-15T16:21:37.527Z,97305.97
2023-02-15T16:24:43.237Z,97302.03
2023-02-15T16:27:17.900Z,97304.09
2023-02-15T16:29:46.609Z,97303.03
2023-02-15T16:32:18.937Z,97300.44
2023-02-15T16:35:02.048Z,97298.19
2023-02-15T16:37:36.624Z,97307.91
2023-02-15T16:40:06.278Z,97302.75
2023-02-15T16:42:36.548Z,97301.28
2023-02-15T16:45:18.675Z,97291.47
2023-02-15T16:47:51.907Z,97289.78
2023-02-15T16:50:33.758Z,97293.63
2023-02-15T16:53:03.905Z,97289.28
2023-02-15T16:55:44.353Z,97292.66
2023-02-15T16:58:19.240Z,97284.78
2023-02-15T17:00:48.893Z,97280.31
2023-02-15T17:03:19.546Z,97274.31
2023-02-15T17:05:51.088Z,97282.91
2023-02-15T17:08:43.366Z,97274.50
2023-02-15T17:11:14.538Z,97267.59
2023-02-15T17:14:10.342Z,97278.53
2023-02-15T17:16:51.053Z,97280.75
2023-02-15T17:19:29.256Z,97272.56
2023-02-15T17:22:02.256Z,97285.16
2023-02-15T17:24:44.414Z,97279.13
2023-02-15T17:27:33.454Z,97281.03
2023-02-15T17:30:11.233Z,97286.69
2023-02-15T17:32:53.687Z,97282.13
2023-02-15T17:35:28.730Z,97285.19
2023-02-15T17:38:21.712Z,97285.00
2023-02-15T17:40:50.555Z,97278.03
2023-02-15T17:43:19.371Z,97285.97
2023-02-15T17:45:53.506Z,97281.59
2023-02-15T17:48:32.385Z,97281.66
2023-02-15T17:51:07.038Z,97276.66
2023-02-15T17:53:35.867Z,97279.00
2023-02-15T17:56:13.814Z,97278.34
2023-02-15T17:58:42.859Z,97277.09
2023-02-15T18:01:39.894Z,97291.19
2023-02-15T18:04:33.960Z,97286.88
2023-02-15T18:07:21.338Z,97282.22
2023-02-15T18:10:08.728Z,97280.16
2023-02-15T18:12:39.305Z,97279.13
2023-02-15T18:15:11.534Z,97285.59
2023-02-15T18:17:48.434Z,97273.72
2023-02-15T18:20:19.273Z,97275.47
2023-02-15T18:22:48.568Z,97272.94
2023-02-15T18:25:20.302Z,97276.22
2023-02-15T18:27:49.231Z,97278.34
2023-02-15T18:30:24.354Z,97279.50
2023-02-15T18:32:57.345Z,97278.41
2023-02-15T18:35:31.056Z,97287.59
2023-02-15T18:38:02.139Z,97281.16
2023-02-15T18:40:31.095Z,97276.47
2023-02-15T18:43:00.037Z,97271.44
2023-02-15T18:45:33.580Z,97285.00
2023-02-15T18:48:02.688Z,97279.38
2023-02-15T18:50:34.958Z,97275.19
2023-02-15T18:53:07.180Z,97270.34
2023-02-15T18:55:36.162Z,97279.38
2023-02-15T18:58:04.994Z,97280.81
2023-02-15T19:00:35.882Z,97277.44
2023-02-15T19:03:05.338Z,97273.56
2023-02-15T19:05:34.737Z,97268.09
2023-02-15T19:08:04.809Z,97273.44
2023-02-15T19:10:34.615Z,97279.59
2023-02-15T19:13:03.525Z,97274.28
2023-02-15T19:15:32.391Z,97257.72
2023-02-15T19:18:01.365Z,97286.91
2023-02-15T19:20:49.139Z,97276.56
2023-02-15T19:23:24.303Z,97288.38
2023-02-15T19:25:56.919Z,97268.66
2023-02-15T19:28:32.973Z,97276.25
2023-02-15T19:31:02.015Z,97276.22
2023-02-15T19:33:31.078Z,97272.59
2023-02-15T19:36:00.764Z,97275.13
2023-02-15T19:38:38.106Z,97273.00
2023-02-15T19:41:10.023Z,97263.47
2023-02-15T19:43:39.318Z,97265.06
2023-02-15T19:46:08.126Z,97264.88
2023-02-15T19:48:36.927Z,97270.19
2023-02-15T19:51:05.951Z,97259.50
2023-02-15T19:53:34.811Z,97248.22
2023-02-15T19:56:03.947Z,97249.66
2023-02-15T19:58:34.257Z,97253.22
2023-02-15T20:01:03.825Z,97260.81
2023-02-15T20:03:33.302Z,97245.31
2023-02-15T20:06:03.051Z,97243.03
2023-02-15T20:08:32.739Z,97255.59
2023-02-15T20:11:01.881Z,97245.06
2023-02-15T20:13:30.942Z,97252.81
2023-02-15T20:16:02.176Z,97253.44
2023-02-15T20:18:31.031Z,97253.31
2023-02-15T20:21:01.112Z,97249.16
2023-02-15T20:23:36.264Z,97252.06
2023-02-15T20:26:19.718Z,97242.72
2023-02-15T20:28:49.306Z,97253.69
2023-02-15T20:31:20.926Z,97242.72
2023-02-15T20:33:50.278Z,97249.03
2023-02-15T20:36:24.156Z,97247.25
2023-02-15T20:38:53.016Z,97246.88
2023-02-15T20:41:37.949Z,97232.88
2023-02-15T20:44:23.020Z,97239.94
2023-02-15T20:46:55.460Z,97246.88
2023-02-15T20:49:25.756Z,97239.19
2023-02-15T20:51:56.378Z,97248.56
2023-02-15T20:54:31.646Z,97231.78
2023-02-15T20:57:00.674Z,97242.59
2023-02-15T20:59:32.628Z,97240.97
2023-02-15T21:02:31.345Z,97241.78
2023-02-15T21:05:02.124Z,97232.56
2023-02-15T21:07:32.246Z,97236.59
2023-02-15T21:10:01.019Z,97235.00
2023-02-15T21:12:32.859Z,97239.31
2023-02-15T21:15:01.694Z,97228.78
2023-02-15T21:17:32.451Z,97234.59
2023-02-15T21:20:01.308Z,97229.78
2023-02-15T21:22:37.868Z,97230.75
2023-02-15T21:25:06.818Z,97229.66
2023-02-15T21:27:35.648Z,97234.84
2023-02-15T21:30:07.218Z,97236.28
2023-02-15T21:32:36.274Z,97229.97
2023-02-15T21:35:06.167Z,97223.84
2023-02-15T21:37:37.147Z,97223.84
2023-02-15T21:40:15.422Z,97221.53
2023-02-15T21:43:02.650Z,97218.66
2023-02-15T21:45:49.871Z,97215.63
2023-02-15T21:48:18.780Z,97216.63
2023-02-15T21:51:06.279Z,97212.59
2023-02-15T21:53:38.231Z,97208.50
2023-02-15T21:56:09.877Z,97220.75
2023-02-15T21:58:38.766Z,97213.50
2023-02-15T22:01:17.773Z,97206.69
2023-02-15T22:03:46.910Z,97211.81
2023-02-15T22:06:15.880Z,97210.84
2023-02-15T22:08:45.951Z,97212.63
2023-02-15T22:11:25.282Z,97212.81
2023-02-15T22:13:54.124Z,97215.59
2023-02-15T22:16:23.775Z,97209.75
2023-02-15T22:18:52.669Z,97212.53
2023-02-15T22:21:21.595Z,97206.88
2023-02-15T22:23:50.369Z,97210.72
2023-02-15T22:26:24.414Z,97217.34
2023-02-15T22:28:53.410Z,97222.81
2023-02-15T22:31:23.914Z,97223.78
2023-02-15T22:33:52.974Z,97225.22
2023-02-15T22:36:28.772Z,97216.00
2023-02-15T22:38:58.146Z,97221.31
2023-02-15T22:41:30.603Z,97225.69
2023-02-15T22:44:00.001Z,97226.47
2023-02-15T22:46:29.371Z,97225.69
2023-02-15T22:48:58.259Z,97216.94
2023-02-15T22:51:27.311Z,97205.72
2023-02-15T22:53:56.153Z,97225.88
2023-02-15T22:56:52.709Z,97234.88
2023-02-15T22:59:27.133Z,97234.88
2023-02-15T23:02:00.139Z,97238.63
2023-02-15T23:04:30.924Z,97239.78
2023-02-15T23:07:01.603Z,97232.38
2023-02-15T23:09:30.469Z,97219.31
2023-02-15T23:11:59.409Z,97238.97
2023-02-15T23:14:46.301Z,97232.88
2023-02-15T23:17:15.145Z,97245.75
2023-02-15T23:19:44.028Z,97239.31
2023-02-15T23:22:17.980Z,97240.38
2023-02-15T23:24:52.452Z,97245.06
2023-02-15T23:27:39.736Z,97255.84
2023-02-15T23:30:14.588Z,97264.78
2023-02-15T23:32:43.507Z,97256.38
2023-02-15T23:35:18.015Z,97264.31
2023-02-15T23:37:46.928Z,97253.50
2023-02-15T23:40:35.864Z,97248.91
2023-02-15T23:43:07.235Z,97255.53
2023-02-15T23:45:39.714Z,97265.88
2023-02-15T23:48:31.072Z,97264.09
2023-02-15T23:51:00.738Z,97256.72
2023-02-15T23:53:30.047Z,97263.84
2023-02-15T23:55:59.457Z,97268.72
2023-02-15T23:58:36.213Z,97266.13
